Time;durP1;ratioP1;P1;durP2;ratioP2;P2;SDS_P1;SDS_P2;PMS_P1;PMS_P2;Temp;Humidity;BMP_temperature;BMP_pressure;BME280_temperature;BME280_humidity;BME280_pressure;Samples;Min_cycle;Max_cycle;Signal;HPM_P1;HPM_P2
2021/05/08 00:01:26;;;;;;;5.18;3.75;;;4.00;85.60;;;;;;5076358;28;20036;-63
2021/05/08 00:03:52;;;;;;;5.32;3.72;;;3.30;85.60;;;;;;5094863;28;20043;-63
2021/05/08 00:06:19;;;;;;;4.75;3.38;;;4.00;86.10;;;;;;5096869;27;20039;-63
2021/05/08 00:08:44;;;;;;;4.63;2.80;;;5.40;86.00;;;;;;5095875;28;20051;-63
2021/05/08 00:11:10;;;;;;;4.75;3.30;;;4.60;85.70;;;;;;5079794;28;20044;-63
2021/05/08 00:13:37;;;;;;;4.63;3.55;;;;;;;;;;5097389;28;20028;-63
2021/05/08 00:16:03;;;;;;;8.20;3.50;;;4.50;86.60;;;;;;5096825;28;20040;-63
2021/05/08 00:18:29;;;;;;;4.35;3.38;;;3.80;86.70;;;;;;5099169;28;20088;-63
2021/05/08 00:20:58;;;;;;;3.80;3.13;;;3.20;84.30;;;;;;5096649;28;20093;-63
2021/05/08 00:23:26;;;;;;;3.72;3.08;;;3.60;87.50;;;;;;5096477;27;20051;-63
2021/05/08 00:25:52;;;;;;;5.97;3.67;;;;;;;;;;5097547;28;20038;-62
2021/05/08 00:28:19;;;;;;;5.05;3.40;;;3.20;86.20;;;;;;5092564;27;20079;-63
2021/05/08 00:30:45;;;;;;;5.05;3.42;;;2.80;85.90;;;;;;5096821;27;20489;-62
2021/05/08 00:33:31;;;;;;;3.85;3.13;;;3.90;86.30;;;;;;5081176;28;20032;-63
2021/05/08 00:35:57;;;;;;;4.32;3.65;;;4.30;87.90;;;;;;5090335;28;20046;-63
2021/05/08 00:38:23;;;;;;;4.13;3.55;;;;;;;;;;5096449;28;20037;-63
2021/05/08 00:40:49;;;;;;;5.10;3.58;;;;;;;;;;5095138;28;20051;-63
2021/05/08 00:43:15;;;;;;;4.22;3.60;;;3.40;85.00;;;;;;5096661;28;20027;-63
2021/05/08 00:45:42;;;;;;;4.45;3.75;;;3.50;86.80;;;;;;5092913;28;20055;-63
2021/05/08 00:48:11;;;;;;;6.35;3.90;;;3.40;88.70;;;;;;5095599;28;20124;-64
2021/05/08 00:50:37;;;;;;;6.43;4.30;;;3.10;87.50;;;;;;5094934;28;20032;-63
2021/05/08 00:53:04;;;;;;;5.07;3.92;;;3.50;89.10;;;;;;5094097;28;20032;-63
2021/05/08 00:55:30;;;;;;;4.47;3.78;;;2.90;87.50;;;;;;5092541;28;20488;-63
2021/05/08 00:57:57;;;;;;;5.72;3.97;;;;;;;;;;5075900;28;20031;-63
2021/05/08 01:00:24;;;;;;;5.25;3.90;;;2.80;88.10;;;;;;5096421;28;20523;-62
2021/05/08 01:02:50;;;;;;;5.97;3.70;;;3.60;88.30;;;;;;5097006;28;20039;-64
2021/05/08 01:05:16;;;;;;;6.88;4.03;;;2.90;87.80;;;;;;5096318;28;20039;-63
2021/05/08 01:07:43;;;;;;;5.30;4.10;;;5.00;89.70;;;;;;5096914;28;20036;-63
2021/05/08 01:10:12;;;;;;;5.72;3.85;;;4.00;88.50;;;;;;5094459;28;20039;-63
2021/05/08 01:12:38;;;;;;;6.38;4.35;;;3.30;86.10;;;;;;5095684;28;20764;-63
2021/05/08 01:15:09;;;;;;;4.90;3.80;;;3.00;87.50;;;;;;5090978;28;20043;-63
2021/05/08 01:17:36;;;;;;;5.80;4.03;;;4.80;89.40;;;;;;5094954;28;20081;-63
2021/05/08 01:20:08;;;;;;;4.88;3.65;;;3.80;88.10;;;;;;5097483;28;20039;-63
2021/05/08 01:22:34;;;;;;;4.95;3.90;;;4.20;86.90;;;;;;5093876;28;20136;-63
2021/05/08 01:25:00;;;;;;;5.78;4.15;;;2.80;87.50;;;;;;5093175;28;22603;-63
2021/05/08 01:27:27;;;;;;;6.60;4.28;;;2.90;88.60;;;;;;5094701;28;20599;-63
2021/05/08 01:29:53;;;;;;;5.63;3.78;;;2.70;88.90;;;;;;5093374;28;20032;-63
2021/05/08 01:32:20;;;;;;;4.80;4.05;;;2.90;89.00;;;;;;5095764;28;20043;-62
2021/05/08 01:34:46;;;;;;;5.18;4.03;;;2.50;89.60;;;;;;5096767;28;20362;-63
2021/05/08 01:37:12;;;;;;;4.68;3.97;;;;;;;;;;5084727;28;20040;-63
2021/05/08 01:39:38;;;;;;;4.75;4.10;;;2.20;88.90;;;;;;5075385;28;20499;-62
2021/05/08 01:42:04;;;;;;;4.47;3.60;;;2.90;88.80;;;;;;5074578;28;20040;-62
2021/05/08 01:44:31;;;;;;;5.28;4.10;;;2.90;89.70;;;;;;5083680;28;20029;-62
2021/05/08 01:46:57;;;;;;;5.03;4.05;;;2.90;90.00;;;;;;5076488;28;20035;-62
2021/05/08 01:49:22;;;;;;;4.72;4.20;;;3.10;90.10;;;;;;5074888;28;20028;-62
2021/05/08 01:51:48;;;;;;;5.45;4.28;;;2.10;89.70;;;;;;5077596;28;20032;-63
2021/05/08 01:54:16;;;;;;;6.10;4.25;;;2.90;88.30;;;;;;5076625;28;20405;-63
2021/05/08 01:56:42;;;;;;;4.25;3.78;;;2.90;89.90;;;;;;5076439;28;20032;-63
2021/05/08 01:59:09;;;;;;;5.95;4.90;;;2.90;88.90;;;;;;5048857;28;20065;-63
2021/05/08 02:01:36;;;;;;;6.82;4.70;;;2.80;89.90;;;;;;5074321;28;20490;-62
2021/05/08 02:04:02;;;;;;;4.97;4.05;;;3.70;90.10;;;;;;5074225;28;20036;-62
2021/05/08 02:06:27;;;;;;;10.38;4.32;;;2.30;89.30;;;;;;5083727;28;20477;-62
2021/05/08 02:08:53;;;;;;;6.07;4.10;;;2.80;90.10;;;;;;5079245;28;20050;-63
2021/05/08 02:11:20;;;;;;;6.00;4.60;;;;;;;;;;5078532;28;20055;-62
2021/05/08 02:13:46;;;;;;;5.05;4.50;;;3.00;90.10;;;;;;5077180;28;20028;-63
2021/05/08 02:16:11;;;;;;;5.85;4.32;;;4.60;90.10;;;;;;5079266;28;20047;-63
2021/05/08 02:18:37;;;;;;;5.93;4.60;;;2.90;90.00;;;;;;5076056;28;20089;-63
2021/05/08 02:21:04;;;;;;;7.07;4.63;;;3.00;90.20;;;;;;5078771;28;20044;-63
2021/05/08 02:23:30;;;;;;;5.60;4.80;;;;;;;;;;5081136;28;20504;-63
2021/05/08 02:25:56;;;;;;;6.57;4.60;;;3.20;90.10;;;;;;5078113;28;20036;-63
2021/05/08 02:28:23;;;;;;;5.97;5.38;;;2.40;90.10;;;;;;5079480;28;20492;-63
2021/05/08 02:30:49;;;;;;;5.38;4.80;;;4.10;90.30;;;;;;5078506;28;20024;-63
2021/05/08 02:33:20;;;;;;;6.40;4.72;;;2.70;90.00;;;;;;5078346;28;20036;-64
2021/05/08 02:35:46;;;;;;;5.45;4.85;;;;;;;;;;5076018;28;20034;-63
2021/05/08 02:38:12;;;;;;;6.85;4.53;;;2.00;89.80;;;;;;5098197;28;20505;-64
2021/05/08 02:40:38;;;;;;;8.77;5.47;;;1.80;89.80;;;;;;5082241;27;20035;-64
2021/05/08 02:43:06;;;;;;;6.75;5.07;;;2.40;88.60;;;;;;5077448;28;20051;-63
2021/05/08 02:45:32;;;;;;;6.75;4.97;;;2.30;89.60;;;;;;5099266;28;20385;-63
2021/05/08 02:47:58;;;;;;;5.45;4.75;;;2.50;89.50;;;;;;5101836;28;20031;-63
2021/05/08 02:50:24;;;;;;;5.72;5.00;;;;;;;;;;5080277;28;20036;-63
2021/05/08 02:52:50;;;;;;;6.40;4.90;;;2.70;89.70;;;;;;5081156;28;20039;-63
2021/05/08 02:55:17;;;;;;;6.63;5.28;;;;;;;;;;5083382;28;20043;-64
2021/05/08 02:57:42;;;;;;;6.65;5.10;;;2.50;90.20;;;;;;5098387;28;20039;-64
2021/05/08 03:00:14;;;;;;;5.85;5.25;;;2.40;89.50;;;;;;5095178;27;20039;-63
2021/05/08 03:02:43;;;;;;;7.55;5.50;;;1.70;89.20;;;;;;5099550;28;20036;-63
2021/05/08 03:05:10;;;;;;;8.43;5.80;;;2.70;90.10;;;;;;5100210;27;20160;-63
2021/05/08 03:07:36;;;;;;;10.38;5.35;;;2.80;90.50;;;;;;5100944;28;20084;-63
2021/05/08 03:10:04;;;;;;;8.65;5.95;;;2.20;90.00;;;;;;5099354;28;20020;-63
2021/05/08 03:12:31;;;;;;;6.20;5.27;;;1.90;90.00;;;;;;5096559;27;20035;-63
2021/05/08 03:14:57;;;;;;;11.95;6.80;;;2.30;90.10;;;;;;5100459;28;20031;-64
2021/05/08 03:17:23;;;;;;;7.18;5.97;;;3.00;91.10;;;;;;5108525;27;20038;-63
2021/05/08 03:19:49;;;;;;;7.20;5.78;;;;;;;;;;5098752;28;20106;-64
2021/05/08 03:22:15;;;;;;;7.70;6.15;;;;;;;;;;5098597;28;20046;-63
2021/05/08 03:24:42;;;;;;;8.20;6.20;;;2.50;90.30;;;;;;5104422;27;20111;-63
2021/05/08 03:27:08;;;;;;;9.27;6.40;;;2.50;90.40;;;;;;5095980;27;20400;-63
2021/05/08 03:29:34;;;;;;;8.27;6.22;;;;;;;;;;5094468;27;20031;-64
2021/05/08 03:32:00;;;;;;;9.10;6.78;;;2.10;90.30;;;;;;5095272;27;20517;-63
2021/05/08 03:34:30;;;;;;;7.18;6.40;;;2.60;90.30;;;;;;5093058;28;20483;-62
2021/05/08 03:36:57;;;;;;;7.10;6.25;;;2.30;90.50;;;;;;5098873;28;20068;-63
2021/05/08 03:39:23;;;;;;;7.88;6.22;;;1.50;90.00;;;;;;5096885;28;20093;-63
2021/05/08 03:41:52;;;;;;;9.43;7.15;;;1.50;90.20;;;;;;5097772;27;20036;-63
2021/05/08 03:44:18;;;;;;;8.85;6.35;;;2.20;90.30;;;;;;5097006;28;20036;-63
2021/05/08 03:46:44;;;;;;;8.38;6.10;;;1.50;90.10;;;;;;5095253;27;20032;-63
2021/05/08 03:49:10;;;;;;;6.95;6.20;;;1.90;90.10;;;;;;5098307;28;20481;-64
2021/05/08 03:51:37;;;;;;;7.90;6.40;;;3.40;90.60;;;;;;5091035;28;20039;-64
2021/05/08 03:54:04;;;;;;;13.65;7.80;;;1.90;90.20;;;;;;5099390;28;20084;-64
2021/05/08 03:56:31;;;;;;;8.25;6.97;;;;;;;;;;5093254;27;20116;-64
2021/05/08 03:58:59;;;;;;;10.07;7.05;;;2.20;90.20;;;;;;5095138;28;20039;-65
2021/05/08 04:01:24;;;;;;;9.85;7.28;;;1.20;90.00;;;;;;5095017;28;20156;-64
2021/05/08 04:03:52;;;;;;;10.63;7.43;;;2.20;90.20;;;;;;5095799;27;20108;-64
2021/05/08 04:06:17;;;;;;;9.23;8.20;;;1.90;91.70;;;;;;5094913;28;20042;-63
2021/05/08 04:08:45;;;;;;;12.38;7.85;;;;;;;;;;5094540;27;20037;-64
2021/05/08 04:11:11;;;;;;;11.02;7.85;;;2.20;91.00;;;;;;5093976;27;20111;-63
2021/05/08 04:13:37;;;;;;;8.63;7.40;;;2.30;91.10;;;;;;5092289;28;20223;-63
2021/05/08 04:16:04;;;;;;;10.20;8.02;;;;;;;;;;5079527;27;20031;-64
2021/05/08 04:18:30;;;;;;;8.93;7.60;;;3.70;91.30;;;;;;5094768;28;20856;-62
2021/05/08 04:20:56;;;;;;;9.40;7.53;;;2.20;90.20;;;;;;5097006;27;20470;-63
2021/05/08 04:23:22;;;;;;;9.98;8.15;;;2.30;90.60;;;;;;5094260;27;20035;-63
2021/05/08 04:25:48;;;;;;;9.85;8.68;;;1.90;89.50;;;;;;5097064;28;20146;-62
2021/05/08 04:28:14;;;;;;;13.43;9.20;;;2.10;91.30;;;;;;5078169;28;20047;-62
2021/05/08 04:30:40;;;;;;;12.00;9.07;;;;;;;;;;5095795;27;20484;-63
2021/05/08 04:33:07;;;;;;;9.63;8.63;;;;;;;;;;5096493;28;20387;-63
2021/05/08 04:35:36;;;;;;;12.88;8.80;;;4.10;91.40;;;;;;5093457;28;20161;-63
2021/05/08 04:38:04;;;;;;;11.20;8.93;;;2.30;91.40;;;;;;5095984;28;20048;-63
2021/05/08 04:40:30;;;;;;;11.95;8.52;;;2.20;90.70;;;;;;5098515;28;20050;-63
2021/05/08 04:42:56;;;;;;;10.07;8.70;;;1.60;91.10;;;;;;5096278;28;20031;-63
2021/05/08 04:45:25;;;;;;;11.77;9.68;;;2.30;91.70;;;;;;5096250;28;20084;-63
2021/05/08 04:48:00;;;;;;;10.77;9.38;;;1.90;91.30;;;;;;5091632;27;20058;-63
2021/05/08 04:50:27;;;;;;;11.52;9.07;;;2.80;91.50;;;;;;5096940;28;20356;-64
2021/05/08 04:52:54;;;;;;;10.80;9.60;;;4.30;91.70;;;;;;5095408;28;20035;-63
2021/05/08 04:55:20;;;;;;;11.93;9.55;;;1.90;90.30;;;;;;5096381;28;20140;-63
2021/05/08 04:57:46;;;;;;;12.15;9.52;;;;;;;;;;5095738;28;20031;-63
2021/05/08 05:00:13;;;;;;;17.27;9.50;;;2.60;91.30;;;;;;5094447;28;20438;-63
2021/05/08 05:02:47;;;;;;;11.43;9.05;;;2.40;91.20;;;;;;5075582;28;20031;-63
2021/05/08 05:05:14;;;;;;;11.45;9.55;;;2.70;91.10;;;;;;5097330;28;20123;-63
2021/05/08 05:07:43;;;;;;;15.20;11.40;;;2.50;91.20;;;;;;5092996;28;20030;-63
2021/05/08 05:10:12;;;;;;;11.65;10.00;;;2.10;91.10;;;;;;5096511;28;20046;-63
2021/05/08 05:12:38;;;;;;;16.13;11.48;;;2.00;91.80;;;;;;5096610;28;20038;-63
2021/05/08 05:15:05;;;;;;;12.70;10.52;;;3.20;91.90;;;;;;5091517;28;20039;-63
2021/05/08 05:17:33;;;;;;;13.95;11.80;;;2.80;92.20;;;;;;5092985;28;20028;-64
2021/05/08 05:19:59;;;;;;;13.82;10.10;;;3.10;92.20;;;;;;5094493;28;20038;-64
2021/05/08 05:22:24;;;;;;;12.60;11.02;;;3.10;92.60;;;;;;5095155;28;20385;-64
2021/05/08 05:24:51;;;;;;;13.30;11.65;;;3.20;92.50;;;;;;5094884;28;20023;-63
2021/05/08 05:27:18;;;;;;;15.48;11.55;;;2.80;92.70;;;;;;5095198;28;20523;-64
2021/05/08 05:29:45;;;;;;;18.05;11.73;;;;;;;;;;5075561;28;20092;-63
2021/05/08 05:32:11;;;;;;;13.95;10.82;;;3.40;92.50;;;;;;5090468;28;20050;-63
2021/05/08 05:34:38;;;;;;;13.32;10.77;;;;;;;;;;5097364;28;20496;-63
2021/05/08 05:37:06;;;;;;;13.10;10.52;;;2.90;92.00;;;;;;5073170;28;20051;-63
2021/05/08 05:39:32;;;;;;;13.35;10.85;;;3.30;92.30;;;;;;5077825;28;20134;-63
2021/05/08 05:41:59;;;;;;;12.02;10.43;;;3.40;92.20;;;;;;5097072;27;20541;-63
2021/05/08 05:44:24;;;;;;;14.02;12.15;;;3.40;92.00;;;;;;5098333;27;20489;-64
2021/05/08 05:46:51;;;;;;;16.52;11.50;;;4.00;92.10;;;;;;5099430;27;20161;-63
2021/05/08 05:49:19;;;;;;;15.40;10.90;;;4.30;91.40;;;;;;5100567;28;20543;-63
2021/05/08 05:51:45;;;;;;;13.00;10.23;;;4.00;92.00;;;;;;5099407;28;20043;-62
2021/05/08 05:54:11;;;;;;;12.82;10.18;;;4.50;92.10;;;;;;5097789;27;20036;-64
2021/05/08 05:56:37;;;;;;;12.02;10.02;;;;;;;;;;5098895;27;20039;-63
2021/05/08 05:59:03;;;;;;;12.80;10.75;;;5.90;91.80;;;;;;5097794;28;20476;-62
2021/05/08 06:01:31;;;;;;;14.32;10.52;;;4.70;91.00;;;;;;5097105;27;20035;-64
2021/05/08 06:03:56;;;;;;;12.88;9.63;;;4.10;90.70;;;;;;5098981;28;20050;-63
2021/05/08 06:06:23;;;;;;;12.43;10.10;;;4.90;90.80;;;;;;5099471;28;20048;-63
2021/05/08 06:08:49;;;;;;;12.98;10.07;;;;;;;;;;5081893;28;20101;-64
2021/05/08 06:11:15;;;;;;;12.20;10.07;;;;;;;;;;5096604;27;20101;-63
2021/05/08 06:13:41;;;;;;;14.90;10.35;;;5.30;90.50;;;;;;5080259;28;20106;-63
2021/05/08 06:16:07;;;;;;;14.18;10.18;;;5.90;90.60;;;;;;5095882;27;20639;-63
2021/05/08 06:18:35;;;;;;;10.45;9.25;;;6.70;90.50;;;;;;5096806;28;20450;-63
2021/05/08 06:21:01;;;;;;;12.95;9.68;;;4.90;89.70;;;;;;5101086;27;20065;-64
2021/05/08 06:23:27;;;;;;;10.82;8.18;;;5.50;89.10;;;;;;5100402;28;20024;-63
2021/05/08 06:25:53;;;;;;;12.38;8.40;;;7.50;88.60;;;;;;5100454;27;20031;-63
2021/05/08 06:28:20;;;;;;;10.95;9.65;;;;;;;;;;5100606;28;20476;-63
2021/05/08 06:30:46;;;;;;;11.25;9.43;;;6.20;86.20;;;;;;5098349;27;20515;-63
2021/05/08 06:33:12;;;;;;;12.80;9.60;;;6.30;87.20;;;;;;5100043;28;20040;-62
2021/05/08 06:35:38;;;;;;;11.00;9.90;;;6.40;86.60;;;;;;5098933;28;20449;-61
2021/05/08 06:38:05;;;;;;;12.18;10.60;;;6.50;86.80;;;;;;5097096;27;20059;-61
2021/05/08 06:40:32;;;;;;;12.07;10.88;;;7.60;85.20;;;;;;5098941;28;20043;-61
2021/05/08 06:42:58;;;;;;;10.35;8.80;;;;;;;;;;5096854;27;20044;-61
2021/05/08 06:45:24;;;;;;;11.32;10.23;;;6.70;84.30;;;;;;5097682;27;20101;-61
2021/05/08 06:47:57;;;;;;;13.23;11.93;;;7.00;84.00;;;;;;5093322;27;20554;-61
2021/05/08 06:50:23;;;;;;;11.55;10.38;;;8.80;86.40;;;;;;5096653;28;20046;-61
2021/05/08 06:52:50;;;;;;;9.90;8.85;;;8.70;82.10;;;;;;5087154;27;20039;-61
2021/05/08 06:55:16;;;;;;;10.80;8.07;;;6.90;81.30;;;;;;5097287;27;20369;-60
2021/05/08 06:57:41;;;;;;;9.13;7.88;;;7.70;81.30;;;;;;5078135;28;20578;-61
2021/05/08 07:00:08;;;;;;;9.35;7.95;;;8.40;83.00;;;;;;5093251;27;20039;-61
2021/05/08 07:02:34;;;;;;;10.88;9.35;;;7.30;80.50;;;;;;5103918;27;20039;-61
2021/05/08 07:05:00;;;;;;;8.10;7.30;;;8.70;79.40;;;;;;5108128;27;20480;-61
2021/05/08 07:07:26;;;;;;;10.10;8.43;;;8.40;80.00;;;;;;5108697;27;20092;-61
2021/05/08 07:09:55;;;;;;;10.48;8.45;;;8.50;78.10;;;;;;5107684;28;20035;-61
2021/05/08 07:12:24;;;;;;;10.73;7.70;;;8.00;76.70;;;;;;5074486;28;20047;-61
2021/05/08 07:14:54;;;;;;;;;;;8.70;77.50;;;;;;5103261;28;20451;-61
2021/05/08 07:17:20;;;;;;;11.85;10.70;;;8.90;76.30;;;;;;5106631;27;19971;-61
2021/05/08 07:19:45;;;;;;;10.60;9.23;;;9.80;77.70;;;;;;5102949;27;20534;-62
2021/05/08 07:22:11;;;;;;;8.68;7.75;;;9.80;76.90;;;;;;5108532;28;20421;-61
2021/05/08 07:24:37;;;;;;;9.18;7.43;;;11.40;67.90;;;;;;5092017;28;20044;-62
2021/05/08 07:27:05;;;;;;;9.85;8.82;;;10.70;67.40;;;;;;5103151;27;20035;-61
2021/05/08 07:29:32;;;;;;;8.82;7.93;;;10.90;65.70;;;;;;5108236;27;20051;-61
2021/05/08 07:32:00;;;;;;;7.53;6.78;;;10.20;67.50;;;;;;5106312;27;20545;-61
2021/05/08 07:34:26;;;;;;;9.48;6.53;;;11.10;64.50;;;;;;5091147;28;20382;-61
2021/05/08 07:36:52;;;;;;;8.57;7.78;;;11.30;62.30;;;;;;5102194;27;20052;-61
2021/05/08 07:39:18;;;;;;;8.48;7.30;;;11.80;62.30;;;;;;5110096;28;20126;-61
2021/05/08 07:41:44;;;;;;;8.52;6.85;;;11.70;60.50;;;;;;5108379;28;20038;-61
2021/05/08 07:44:10;;;;;;;7.65;5.82;;;12.00;60.90;;;;;;5106940;27;20027;-61
2021/05/08 07:46:35;;;;;;;8.90;6.43;;;12.20;60.50;;;;;;5110970;28;20062;-61
2021/05/08 07:49:01;;;;;;;7.70;7.00;;;12.30;58.90;;;;;;5083439;28;20047;-61
2021/05/08 07:51:27;;;;;;;7.03;5.70;;;12.60;60.60;;;;;;5095711;27;20123;-60
2021/05/08 07:53:53;;;;;;;7.00;6.30;;;12.70;55.50;;;;;;5077045;28;20115;-61
2021/05/08 07:56:19;;;;;;;9.60;6.45;;;13.00;57.10;;;;;;5092578;27;20482;-61
2021/05/08 07:58:45;;;;;;;9.13;5.80;;;13.10;56.00;;;;;;5091089;27;20144;-61
2021/05/08 08:01:11;;;;;;;7.68;5.60;;;13.20;54.30;;;;;;5094074;28;20140;-61
2021/05/08 08:03:36;;;;;;;7.47;5.85;;;13.30;51.40;;;;;;5099100;28;20031;-61
2021/05/08 08:06:03;;;;;;;6.78;5.80;;;13.30;52.90;;;;;;5095220;27;20027;-61
2021/05/08 08:08:29;;;;;;;6.57;5.82;;;13.30;54.50;;;;;;5076413;28;20488;-62
2021/05/08 08:10:58;;;;;;;7.47;5.78;;;13.20;53.60;;;;;;5097509;28;20035;-61
2021/05/08 08:13:25;;;;;;;8.07;7.28;;;13.20;54.70;;;;;;5095241;28;20047;-61
2021/05/08 08:15:50;;;;;;;7.30;6.60;;;13.10;54.60;;;;;;5096183;28;20028;-62
2021/05/08 08:18:16;;;;;;;7.13;6.03;;;13.10;54.80;;;;;;5096071;28;20145;-61
2021/05/08 08:20:42;;;;;;;8.18;7.47;;;12.90;53.50;;;;;;5094092;28;20032;-61
2021/05/08 08:23:08;;;;;;;9.90;7.88;;;12.80;53.30;;;;;;5097599;28;20050;-61
2021/05/08 08:25:34;;;;;;;8.93;7.93;;;12.80;54.70;;;;;;5095834;28;20028;-61
2021/05/08 08:28:00;;;;;;;6.63;5.55;;;12.90;55.30;;;;;;5098170;28;20102;-60
2021/05/08 08:30:26;;;;;;;8.50;7.20;;;12.90;54.30;;;;;;5092838;27;20062;-61
2021/05/08 08:32:52;;;;;;;8.63;6.80;;;12.90;54.30;;;;;;5102435;27;20096;-63
2021/05/08 08:35:17;;;;;;;9.18;7.70;;;13.00;56.20;;;;;;5105087;28;20057;-62
2021/05/08 08:37:44;;;;;;;7.90;7.20;;;13.10;56.70;;;;;;5084980;28;20105;-63
2021/05/08 08:40:10;;;;;;;6.82;5.88;;;14.60;54.30;;;;;;5106122;28;20071;-61
2021/05/08 08:42:37;;;;;;;8.40;6.32;;;13.30;55.40;;;;;;5086098;28;20072;-62
2021/05/08 08:45:04;;;;;;;9.13;6.03;;;13.80;55.60;;;;;;5099476;28;20039;-61
2021/05/08 08:47:30;;;;;;;7.80;6.07;;;13.50;53.00;;;;;;5087171;28;20035;-61
2021/05/08 08:50:15;;;;;;;9.43;6.22;;;13.80;50.90;;;;;;5106618;28;20046;-61
2021/05/08 08:52:41;;;;;;;6.63;5.50;;;13.50;51.70;;;;;;5102357;28;20040;-61
2021/05/08 08:55:09;;;;;;;7.10;5.97;;;13.50;54.00;;;;;;5086831;28;20069;-61
2021/05/08 08:57:40;;;;;;;8.23;6.05;;;13.60;53.20;;;;;;5095700;27;20123;-62
2021/05/08 09:00:13;;;;;;;5.70;5.05;;;13.70;54.10;;;;;;5096122;28;20496;-61
2021/05/08 09:02:40;;;;;;;6.18;5.20;;;13.80;52.30;;;;;;5094443;28;20071;-62
2021/05/08 09:05:09;;;;;;;7.07;5.13;;;13.90;50.50;;;;;;5096600;28;20024;-62
2021/05/08 09:07:36;;;;;;;8.60;5.40;;;13.90;50.80;;;;;;5094024;28;20470;-61
2021/05/08 09:10:05;;;;;;;6.25;5.00;;;12.60;47.50;;;;;;5094916;28;20046;-61
2021/05/08 09:12:45;;;;;;;6.47;4.97;;;13.40;48.50;;;;;;5094612;28;20410;-61
2021/05/08 09:15:12;;;;;;;7.20;5.40;;;13.70;49.00;;;;;;5095928;28;20491;-61
2021/05/08 09:17:44;;;;;;;8.27;5.50;;;13.90;50.40;;;;;;5100048;28;20078;-62
2021/05/08 09:20:11;;;;;;;7.70;5.10;;;14.10;49.10;;;;;;5097156;28;20070;-61
2021/05/08 09:22:39;;;;;;;8.02;7.22;;;14.30;50.40;;;;;;5097659;28;20099;-61
2021/05/08 09:25:13;;;;;;;7.25;6.18;;;14.70;47.80;;;;;;5099415;28;20092;-61
2021/05/08 09:27:56;;;;;;;7.28;6.60;;;14.60;48.50;;;;;;5097409;27;20092;-61
2021/05/08 09:30:26;;;;;;;7.57;5.97;;;14.80;46.00;;;;;;5096652;27;20491;-61
2021/05/08 09:32:55;;;;;;;7.25;5.35;;;14.90;46.40;;;;;;5092072;27;20043;-62
2021/05/08 09:35:23;;;;;;;6.30;5.18;;;13.90;44.80;;;;;;5098534;27;20028;-61
2021/05/08 09:37:51;;;;;;;6.25;5.15;;;15.40;46.50;;;;;;5100216;28;20492;-61
2021/05/08 09:40:25;;;;;;;8.95;6.10;;;14.80;47.40;;;;;;5096371;27;20036;-61
2021/05/08 09:42:56;;;;;;;7.53;5.47;;;14.70;44.60;;;;;;5096219;27;20477;-61
2021/05/08 09:45:27;;;;;;;7.75;5.50;;;14.60;46.40;;;;;;5097099;27;20495;-62
2021/05/08 09:47:54;;;;;;;8.15;5.80;;;14.60;45.90;;;;;;5080511;27;20079;-62
2021/05/08 09:50:25;;;;;;;8.45;5.97;;;14.60;45.40;;;;;;5098972;27;20100;-61
2021/05/08 09:52:53;;;;;;;8.52;5.72;;;14.80;47.20;;;;;;5099926;28;20145;-61
2021/05/08 09:55:21;;;;;;;8.00;5.88;;;14.90;46.00;;;;;;5096756;27;20149;-62
2021/05/08 09:58:07;;;;;;;8.68;6.50;;;15.00;46.30;;;;;;5098979;28;20566;-61
2021/05/08 10:00:40;;;;;;;8.63;6.40;;;16.00;45.50;;;;;;5096307;27;20097;-62
2021/05/08 10:03:14;;;;;;;10.30;6.82;;;15.00;46.00;;;;;;5095585;27;20105;-61
2021/05/08 10:05:42;;;;;;;7.68;5.93;;;15.10;46.00;;;;;;5084691;27;20576;-62
2021/05/08 10:08:09;;;;;;;9.68;6.97;;;14.70;45.00;;;;;;5094445;28;20089;-62
2021/05/08 10:10:36;;;;;;;9.63;6.93;;;14.90;46.30;;;;;;5094523;27;20094;-62
2021/05/08 10:13:10;;;;;;;7.95;6.80;;;14.90;47.50;;;;;;5094844;27;20566;-61
2021/05/08 10:15:38;;;;;;;8.35;7.05;;;14.90;47.80;;;;;;5096718;27;20094;-61
2021/05/08 10:18:07;;;;;;;9.13;7.10;;;14.80;47.00;;;;;;5099107;28;20089;-62
2021/05/08 10:20:34;;;;;;;9.25;7.28;;;14.80;47.50;;;;;;5098064;28;20086;-62
2021/05/08 10:23:06;;;;;;;11.38;7.15;;;14.90;46.70;;;;;;5097244;28;20751;-62
2021/05/08 10:25:32;;;;;;;9.27;7.32;;;14.90;47.50;;;;;;5097389;28;20610;-62
2021/05/08 10:27:58;;;;;;;8.82;7.10;;;14.90;47.40;;;;;;5098875;28;20137;-62
2021/05/08 10:30:29;;;;;;;9.23;7.10;;;14.80;48.30;;;;;;5099860;28;20095;-62
2021/05/08 10:32:56;;;;;;;11.20;7.85;;;14.90;48.10;;;;;;5093380;27;20093;-61
2021/05/08 10:35:52;;;;;;;9.60;7.40;;;14.90;47.60;;;;;;5094099;27;20100;-61
2021/05/08 10:38:27;;;;;;;12.57;7.85;;;14.90;45.70;;;;;;5099955;28;20134;-61
2021/05/08 10:41:05;;;;;;;10.52;8.13;;;14.70;45.00;;;;;;5098473;28;20114;-62
2021/05/08 10:43:38;;;;;;;11.50;7.75;;;14.70;46.50;;;;;;5096432;27;20091;-61
2021/05/08 10:46:05;;;;;;;11.15;8.07;;;14.70;46.80;;;;;;5096516;28;20090;-62
2021/05/08 10:48:31;;;;;;;12.45;8.38;;;14.80;47.10;;;;;;5098046;28;20480;-61
2021/05/08 10:50:59;;;;;;;9.68;8.13;;;14.90;47.60;;;;;;5100020;27;20031;-63
2021/05/08 10:53:42;;;;;;;11.85;8.05;;;15.60;46.20;;;;;;5096092;28;20038;-63
2021/05/08 10:56:31;;;;;;;11.15;8.63;;;15.10;47.70;;;;;;5094861;27;20032;-62
2021/05/08 10:59:05;;;;;;;11.35;8.05;;;15.10;46.00;;;;;;5096050;27;20118;-62
2021/05/08 11:01:39;;;;;;;11.15;7.90;;;15.30;46.50;;;;;;5108714;27;21708;-63
2021/05/08 11:04:05;;;;;;;11.35;7.75;;;15.30;47.40;;;;;;5095937;27;20114;-62
2021/05/08 11:06:31;;;;;;;9.75;7.57;;;15.40;46.10;;;;;;5076644;28;20669;-62
2021/05/08 11:08:57;;;;;;;10.45;7.95;;;15.50;47.10;;;;;;5099076;28;20059;-62
2021/05/08 11:11:43;;;;;;;12.18;8.35;;;15.90;44.60;;;;;;5098996;27;20433;-62
2021/05/08 11:14:09;;;;;;;10.48;8.45;;;15.60;44.80;;;;;;5097519;28;20172;-62
2021/05/08 11:16:35;;;;;;;10.30;7.60;;;15.70;44.90;;;;;;5098936;27;20043;-62
2021/05/08 11:19:02;;;;;;;9.70;8.02;;;15.70;45.80;;;;;;5099082;28;21580;-62
2021/05/08 11:21:30;;;;;;;10.35;7.43;;;15.70;45.20;;;;;;5096912;28;20064;-63
2021/05/08 11:24:02;;;;;;;11.32;7.55;;;15.60;45.40;;;;;;5099133;28;20035;-63
2021/05/08 11:26:28;;;;;;;9.15;7.45;;;14.50;43.90;;;;;;5096156;27;20047;-62
2021/05/08 11:29:10;;;;;;;9.43;7.03;;;15.40;44.80;;;;;;5098808;28;20027;-60
2021/05/08 11:31:52;;;;;;;11.98;7.50;;;16.20;45.50;;;;;;5096929;28;20034;-62
2021/05/08 11:34:19;;;;;;;10.65;7.05;;;15.40;45.60;;;;;;5095773;27;20028;-61
2021/05/08 11:36:58;;;;;;;10.93;7.85;;;15.50;46.80;;;;;;5093118;28;20090;-62
2021/05/08 11:39:27;;;;;;;9.45;7.13;;;15.30;44.70;;;;;;5090493;27;20119;-61
2021/05/08 11:42:02;;;;;;;12.05;7.10;;;15.30;45.50;;;;;;5096634;28;20040;-61
2021/05/08 11:44:35;;;;;;;9.75;7.30;;;15.10;44.10;;;;;;5092858;28;20472;-62
2021/05/08 11:47:27;;;;;;;9.40;6.88;;;12.50;43.70;;;;;;5090853;28;20036;-62
2021/05/08 11:49:56;;;;;;;10.15;7.00;;;15.20;45.90;;;;;;5092917;28;20024;-62
2021/05/08 11:52:48;;;;;;;10.55;7.43;;;15.00;46.60;;;;;;5089920;28;20482;-62
2021/05/08 11:55:16;;;;;;;10.63;7.65;;;14.90;47.80;;;;;;5073922;28;20039;-62
2021/05/08 11:57:46;;;;;;;8.32;6.18;;;14.90;48.70;;;;;;5093358;28;20027;-62
2021/05/08 12:00:14;;;;;;;6.15;5.18;;;14.80;47.20;;;;;;5091276;28;20043;-62
2021/05/08 12:02:40;;;;;;;6.40;5.53;;;14.70;45.70;;;;;;5095257;28;20039;-63
2021/05/08 12:05:06;;;;;;;7.13;5.68;;;14.60;45.70;;;;;;5095402;28;20092;-62
2021/05/08 12:07:38;;;;;;;8.15;5.57;;;14.40;46.40;;;;;;5084718;28;20024;-61
2021/05/08 12:10:14;;;;;;;6.25;4.90;;;14.40;46.90;;;;;;5097566;28;20036;-62
2021/05/08 12:12:47;;;;;;;7.38;5.63;;;15.50;48.40;;;;;;5097587;28;20486;-62
2021/05/08 12:15:19;;;;;;;7.35;5.15;;;14.60;48.30;;;;;;5097055;28;20054;-62
2021/05/08 12:17:45;;;;;;;7.28;5.45;;;14.30;47.40;;;;;;5095115;28;20051;-61
2021/05/08 12:20:12;;;;;;;7.60;5.50;;;14.30;47.10;;;;;;5096444;28;20031;-61
2021/05/08 12:22:38;;;;;;;10.13;5.75;;;14.30;47.40;;;;;;5079603;28;20628;-62
2021/05/08 12:25:16;;;;;;;10.43;5.50;;;14.80;47.70;;;;;;5094374;28;20036;-62
2021/05/08 12:27:42;;;;;;;5.97;5.03;;;14.50;47.30;;;;;;5095442;28;20031;-61
2021/05/08 12:30:09;;;;;;;6.85;5.90;;;14.20;46.90;;;;;;5098007;28;20473;-61
2021/05/08 12:32:35;;;;;;;6.95;5.28;;;13.60;47.40;;;;;;5098062;28;20423;-61
2021/05/08 12:35:01;;;;;;;10.05;5.38;;;14.10;48.10;;;;;;5097563;28;20043;-61
2021/05/08 12:37:27;;;;;;;7.88;5.18;;;14.50;47.50;;;;;;5094176;28;20055;-61
2021/05/08 12:39:52;;;;;;;6.57;4.65;;;14.10;47.50;;;;;;5093191;28;20042;-62
2021/05/08 12:42:18;;;;;;;6.25;4.45;;;14.10;48.90;;;;;;5093240;28;20043;-62
2021/05/08 12:44:50;;;;;;;6.57;5.32;;;14.00;48.90;;;;;;5091235;28;20046;-62
2021/05/08 12:47:17;;;;;;;5.78;5.10;;;14.00;48.30;;;;;;5096849;28;20032;-62
2021/05/08 12:50:13;;;;;;;5.63;4.80;;;13.30;49.70;;;;;;5095579;28;20040;-62
2021/05/08 12:52:42;;;;;;;13.95;5.25;;;14.60;51.30;;;;;;5096440;28;20043;-63
2021/05/08 12:55:22;;;;;;;6.18;4.93;;;13.90;50.80;;;;;;5097108;28;20097;-63
2021/05/08 12:57:48;;;;;;;6.90;4.80;;;15.30;52.00;;;;;;5096830;28;20576;-63
2021/05/08 13:00:16;;;;;;;6.00;4.78;;;13.90;51.60;;;;;;5094805;28;20546;-63